Santa Isabel, Brazil
Current Conditions -  °F | °C
As of 12:00 AM on Tuesday 23 Dec 2014 (Local Time) from SBPJ Reporting Station
Thunderstorm Thunderstorm  
Wind Chill: 72°   Ceiling: 2000
Heat Index: 72°   Visibility: 4mi
Dew Point: 68°   Wind: 0mph
Humidity: 88%   Direction: NA
Pressure: NA   Gusts: NA
Location:  11.57°S, 50.67°W
Report Text: SBPJ 230300Z 00000KT 7000 -TSRA SCT010 BKN020 FEW030CB 22/20 Q1013
Loading
Personal Weather Stations






























Interactive Weather Map New forecast layout! Learn more

10-Day Weather Forecast

Advertisements
Track Severe Weather on mobile